sensor_id;sensor_type;location;lat;lon;timestamp;pressure;altitude;pressure_sealevel;temperature;humidity
31717;BME280;18301;51.076;17.046;2023-08-20T00:00:23;100469.06;;;23.85;91.35
31717;BME280;18301;51.076;17.046;2023-08-20T00:05:24;100468.81;;;23.80;91.43
31717;BME280;18301;51.076;17.046;2023-08-20T00:10:26;100471.97;;;23.77;91.64
31717;BME280;18301;51.076;17.046;2023-08-20T00:15:28;100467.91;;;23.73;92.22
31717;BME280;18301;51.076;17.046;2023-08-20T00:20:29;100472.56;;;23.72;92.08
31717;BME280;18301;51.076;17.046;2023-08-20T00:25:31;100472.09;;;23.69;92.22
31717;BME280;18301;51.076;17.046;2023-08-20T00:30:33;100470.13;;;23.62;92.57
31717;BME280;18301;51.076;17.046;2023-08-20T00:35:34;100461.19;;;23.60;92.49
31717;BME280;18301;51.076;17.046;2023-08-20T00:40:36;100461.19;;;23.60;93.17
31717;BME280;18301;51.076;17.046;2023-08-20T00:45:39;100447.81;;;23.57;92.89
31717;BME280;18301;51.076;17.046;2023-08-20T00:50:41;100448.00;;;23.56;92.73
31717;BME280;18301;51.076;17.046;2023-08-20T00:55:43;100444.81;;;23.52;92.85
31717;BME280;18301;51.076;17.046;2023-08-20T01:00:45;100451.75;;;23.48;92.67
31717;BME280;18301;51.076;17.046;2023-08-20T01:05:50;100455.09;;;23.43;93.12
31717;BME280;18301;51.076;17.046;2023-08-20T01:11:02;100448.84;;;23.35;93.47
31717;BME280;18301;51.076;17.046;2023-08-20T01:16:05;100452.38;;;23.29;93.19
31717;BME280;18301;51.076;17.046;2023-08-20T01:21:20;100459.97;;;23.27;93.71
31717;BME280;18301;51.076;17.046;2023-08-20T01:26:56;100460.50;;;23.15;94.24
31717;BME280;18301;51.076;17.046;2023-08-20T01:32:00;100450.28;;;23.09;94.42
31717;BME280;18301;51.076;17.046;2023-08-20T01:37:02;100453.81;;;23.03;95.10
31717;BME280;18301;51.076;17.046;2023-08-20T01:42:03;100449.06;;;22.97;95.17
31717;BME280;18301;51.076;17.046;2023-08-20T01:47:05;100436.44;;;22.88;95.56
31717;BME280;18301;51.076;17.046;2023-08-20T01:52:07;100438.91;;;22.83;95.97
31717;BME280;18301;51.076;17.046;2023-08-20T01:57:08;100438.44;;;22.79;96.78
31717;BME280;18301;51.076;17.046;2023-08-20T02:02:10;100445.94;;;22.70;96.67
31717;BME280;18301;51.076;17.046;2023-08-20T02:07:11;100463.50;;;22.55;97.83
31717;BME280;18301;51.076;17.046;2023-08-20T02:12:13;100456.78;;;22.57;97.81
31717;BME280;18301;51.076;17.046;2023-08-20T02:17:14;100463.97;;;22.58;98.08
31717;BME280;18301;51.076;17.046;2023-08-20T02:22:16;100474.50;;;22.55;98.28
31717;BME280;18301;51.076;17.046;2023-08-20T02:27:18;100465.56;;;22.52;98.20
31717;BME280;18301;51.076;17.046;2023-08-20T02:32:20;100475.44;;;22.47;98.38
31717;BME280;18301;51.076;17.046;2023-08-20T02:37:21;100470.59;;;22.49;98.82
31717;BME280;18301;51.076;17.046;2023-08-20T02:42:23;100460.81;;;22.46;98.36
31717;BME280;18301;51.076;17.046;2023-08-20T02:47:24;100463.78;;;22.45;98.60
31717;BME280;18301;51.076;17.046;2023-08-20T02:52:26;100472.59;;;22.40;98.51
31717;BME280;18301;51.076;17.046;2023-08-20T02:57:27;100467.47;;;22.37;98.89
31717;BME280;18301;51.076;17.046;2023-08-20T03:02:29;100473.53;;;22.33;98.54
31717;BME280;18301;51.076;17.046;2023-08-20T03:07:30;100470.78;;;22.33;98.90
31717;BME280;18301;51.076;17.046;2023-08-20T03:12:32;100469.06;;;22.32;98.97
31717;BME280;18301;51.076;17.046;2023-08-20T03:17:33;100476.84;;;22.28;99.37
31717;BME280;18301;51.076;17.046;2023-08-20T03:22:37;100487.00;;;22.27;98.85
31717;BME280;18301;51.076;17.046;2023-08-20T03:27:38;100477.78;;;22.20;99.42
31717;BME280;18301;51.076;17.046;2023-08-20T03:32:40;100472.28;;;22.20;99.56
31717;BME280;18301;51.076;17.046;2023-08-20T03:37:41;100473.53;;;22.18;99.33
31717;BME280;18301;51.076;17.046;2023-08-20T03:42:43;100485.22;;;22.12;100.00
31717;BME280;18301;51.076;17.046;2023-08-20T03:47:45;100485.59;;;22.09;100.00
31717;BME280;18301;51.076;17.046;2023-08-20T03:52:48;100478.88;;;22.11;100.00
31717;BME280;18301;51.076;17.046;2023-08-20T03:57:50;100479.72;;;22.12;100.00
31717;BME280;18301;51.076;17.046;2023-08-20T04:02:51;100490.91;;;22.10;99.94
31717;BME280;18301;51.076;17.046;2023-08-20T04:07:53;100488.81;;;22.12;100.00
31717;BME280;18301;51.076;17.046;2023-08-20T04:12:54;100489.50;;;22.14;100.00
31717;BME280;18301;51.076;17.046;2023-08-20T04:17:56;100490.84;;;22.18;100.00
31717;BME280;18301;51.076;17.046;2023-08-20T04:22:58;100491.81;;;22.25;99.90
31717;BME280;18301;51.076;17.046;2023-08-20T04:27:59;100491.06;;;22.32;99.80
31717;BME280;18301;51.076;17.046;2023-08-20T04:33:01;100497.16;;;22.42;99.93
31717;BME280;18301;51.076;17.046;2023-08-20T04:38:03;100505.28;;;22.50;99.77
31717;BME280;18301;51.076;17.046;2023-08-20T04:43:04;100502.09;;;22.61;99.33
31717;BME280;18301;51.076;17.046;2023-08-20T04:48:06;100510.63;;;22.66;99.59
31717;BME280;18301;51.076;17.046;2023-08-20T04:53:07;100507.78;;;22.74;99.74
31717;BME280;18301;51.076;17.046;2023-08-20T04:58:09;100512.34;;;22.82;99.23
31717;BME280;18301;51.076;17.046;2023-08-20T05:03:10;100511.38;;;22.90;99.20
31717;BME280;18301;51.076;17.046;2023-08-20T05:08:12;100516.22;;;23.03;99.18
31717;BME280;18301;51.076;17.046;2023-08-20T05:13:15;100519.34;;;23.14;98.86
31717;BME280;18301;51.076;17.046;2023-08-20T05:18:16;100522.53;;;23.33;98.20
31717;BME280;18301;51.076;17.046;2023-08-20T05:23:18;100517.19;;;23.46;97.78
31717;BME280;18301;51.076;17.046;2023-08-20T05:28:19;100525.97;;;23.71;97.96
31717;BME280;18301;51.076;17.046;2023-08-20T05:33:21;100524.31;;;23.98;98.65
31717;BME280;18301;51.076;17.046;2023-08-20T05:38:22;100529.81;;;24.20;97.45
31717;BME280;18301;51.076;17.046;2023-08-20T05:43:24;100530.16;;;24.38;96.06
31717;BME280;18301;51.076;17.046;2023-08-20T05:48:25;100544.56;;;24.55;94.89
31717;BME280;18301;51.076;17.046;2023-08-20T05:53:27;100543.00;;;24.80;94.72
31717;BME280;18301;51.076;17.046;2023-08-20T05:58:29;100540.16;;;25.02;93.04
31717;BME280;18301;51.076;17.046;2023-08-20T06:03:30;100544.94;;;25.21;91.50
31717;BME280;18301;51.076;17.046;2023-08-20T06:08:32;100549.75;;;25.47;90.70
31717;BME280;18301;51.076;17.046;2023-08-20T06:13:33;100545.09;;;25.55;89.35
31717;BME280;18301;51.076;17.046;2023-08-20T06:18:35;100553.22;;;25.76;88.14
31717;BME280;18301;51.076;17.046;2023-08-20T06:23:36;100550.53;;;25.96;86.96
31717;BME280;18301;51.076;17.046;2023-08-20T06:28:42;100557.16;;;26.15;85.73
31717;BME280;18301;51.076;17.046;2023-08-20T06:33:43;100562.91;;;26.40;84.38
31717;BME280;18301;51.076;17.046;2023-08-20T06:38:45;100552.69;;;26.67;83.81
31717;BME280;18301;51.076;17.046;2023-08-20T06:43:46;100555.44;;;26.80;82.77
31717;BME280;18301;51.076;17.046;2023-08-20T06:48:48;100561.78;;;27.01;80.19
31717;BME280;18301;51.076;17.046;2023-08-20T06:53:49;100561.75;;;27.14;79.32
31717;BME280;18301;51.076;17.046;2023-08-20T06:58:51;100560.81;;;27.40;80.22
31717;BME280;18301;51.076;17.046;2023-08-20T07:03:52;100565.41;;;27.60;77.75
31717;BME280;18301;51.076;17.046;2023-08-20T07:08:54;100574.72;;;27.79;78.46
31717;BME280;18301;51.076;17.046;2023-08-20T07:13:55;100579.72;;;27.95;71.72
31717;BME280;18301;51.076;17.046;2023-08-20T07:18:57;100575.47;;;27.92;73.11
31717;BME280;18301;51.076;17.046;2023-08-20T07:23:58;100587.78;;;28.03;71.46
31717;BME280;18301;51.076;17.046;2023-08-20T07:29:00;100581.69;;;28.19;71.52
31717;BME280;18301;51.076;17.046;2023-08-20T07:34:02;100582.66;;;28.32;70.02
31717;BME280;18301;51.076;17.046;2023-08-20T07:39:05;100592.25;;;28.36;70.07
31717;BME280;18301;51.076;17.046;2023-08-20T07:44:07;100592.81;;;28.51;69.60
31717;BME280;18301;51.076;17.046;2023-08-20T07:49:09;100590.00;;;28.76;67.51
31717;BME280;18301;51.076;17.046;2023-08-20T07:54:10;100590.53;;;28.85;69.09
31717;BME280;18301;51.076;17.046;2023-08-20T07:59:12;100598.97;;;28.97;67.17
31717;BME280;18301;51.076;17.046;2023-08-20T08:04:13;100595.47;;;29.08;65.51
31717;BME280;18301;51.076;17.046;2023-08-20T08:09:19;100601.69;;;29.28;66.57
31717;BME280;18301;51.076;17.046;2023-08-20T08:14:22;100596.78;;;29.42;64.15
31717;BME280;18301;51.076;17.046;2023-08-20T08:19:23;100602.50;;;29.29;63.28
31717;BME280;18301;51.076;17.046;2023-08-20T08:24:25;100607.38;;;29.70;63.71
31717;BME280;18301;51.076;17.046;2023-08-20T08:29:26;100603.50;;;30.01;63.73
31717;BME280;18301;51.076;17.046;2023-08-20T08:34:28;100602.31;;;30.39;62.15
31717;BME280;18301;51.076;17.046;2023-08-20T08:39:29;100605.13;;;30.74;56.97
31717;BME280;18301;51.076;17.046;2023-08-20T08:44:31;100607.97;;;31.10;57.30
31717;BME280;18301;51.076;17.046;2023-08-20T08:49:36;100610.69;;;31.33;54.32
31717;BME280;18301;51.076;17.046;2023-08-20T08:54:37;100605.34;;;31.44;54.92
31717;BME280;18301;51.076;17.046;2023-08-20T08:59:39;100616.41;;;31.15;52.56
31717;BME280;18301;51.076;17.046;2023-08-20T09:04:41;100605.97;;;30.75;54.08
31717;BME280;18301;51.076;17.046;2023-08-20T09:09:46;100606.19;;;30.50;54.73
31717;BME280;18301;51.076;17.046;2023-08-20T09:14:50;100611.88;;;30.43;56.98
31717;BME280;18301;51.076;17.046;2023-08-20T09:19:54;100620.59;;;30.17;55.83
31717;BME280;18301;51.076;17.046;2023-08-20T09:24:56;100626.19;;;30.17;56.17
31717;BME280;18301;51.076;17.046;2023-08-20T09:29:58;100626.00;;;30.00;56.98
31717;BME280;18301;51.076;17.046;2023-08-20T09:34:59;100622.00;;;29.96;58.35
31717;BME280;18301;51.076;17.046;2023-08-20T09:40:01;100641.06;;;29.80;58.49
31717;BME280;18301;51.076;17.046;2023-08-20T09:45:04;100638.75;;;29.77;59.51
31717;BME280;18301;51.076;17.046;2023-08-20T09:50:10;100637.72;;;29.90;60.45
31717;BME280;18301;51.076;17.046;2023-08-20T09:55:16;100647.91;;;29.96;60.11
31717;BME280;18301;51.076;17.046;2023-08-20T10:00:22;100637.25;;;29.93;60.14
31717;BME280;18301;51.076;17.046;2023-08-20T10:05:23;100641.09;;;29.92;59.18
31717;BME280;18301;51.076;17.046;2023-08-20T10:10:25;100630.72;;;29.99;57.17
31717;BME280;18301;51.076;17.046;2023-08-20T10:15:27;100629.78;;;30.05;57.06
31717;BME280;18301;51.076;17.046;2023-08-20T10:20:29;100627.22;;;30.04;57.42
31717;BME280;18301;51.076;17.046;2023-08-20T10:25:40;100626.59;;;29.90;58.24
31717;BME280;18301;51.076;17.046;2023-08-20T10:36:13;100610.38;;;30.29;58.82
31717;BME280;18301;51.076;17.046;2023-08-20T10:41:15;100619.16;;;30.56;58.10
31717;BME280;18301;51.076;17.046;2023-08-20T10:46:20;100614.50;;;30.80;58.46
31717;BME280;18301;51.076;17.046;2023-08-20T10:51:33;100621.88;;;30.86;58.26
31717;BME280;18301;51.076;17.046;2023-08-20T10:56:45;100628.66;;;31.02;56.33
31717;BME280;18301;51.076;17.046;2023-08-20T11:01:48;100620.31;;;31.14;53.48
31717;BME280;18301;51.076;17.046;2023-08-20T11:06:53;100622.00;;;31.15;54.29
31717;BME280;18301;51.076;17.046;2023-08-20T11:11:56;100624.28;;;31.18;53.00
31717;BME280;18301;51.076;17.046;2023-08-20T11:16:58;100626.44;;;31.28;53.14
31717;BME280;18301;51.076;17.046;2023-08-20T11:21:59;100619.53;;;31.30;50.81
31717;BME280;18301;51.076;17.046;2023-08-20T11:27:01;100618.59;;;31.36;52.31
31717;BME280;18301;51.076;17.046;2023-08-20T11:32:02;100608.78;;;31.34;47.26
31717;BME280;18301;51.076;17.046;2023-08-20T11:37:05;100619.19;;;31.27;49.86
31717;BME280;18301;51.076;17.046;2023-08-20T11:42:07;100613.47;;;31.33;49.25
31717;BME280;18301;51.076;17.046;2023-08-20T11:47:16;100617.84;;;31.29;48.58
31717;BME280;18301;51.076;17.046;2023-08-20T11:52:18;100609.38;;;31.36;49.24
31717;BME280;18301;51.076;17.046;2023-08-20T11:57:22;100605.13;;;31.22;50.50
31717;BME280;18301;51.076;17.046;2023-08-20T12:02:26;100597.84;;;31.32;49.51
31717;BME280;18301;51.076;17.046;2023-08-20T12:07:40;100599.19;;;31.41;50.25
31717;BME280;18301;51.076;17.046;2023-08-20T12:12:42;100589.34;;;31.51;50.37
31717;BME280;18301;51.076;17.046;2023-08-20T12:17:43;100594.78;;;31.57;49.99
31717;BME280;18301;51.076;17.046;2023-08-20T12:22:45;100595.31;;;31.71;49.52
31717;BME280;18301;51.076;17.046;2023-08-20T12:27:46;100585.38;;;31.75;51.02
31717;BME280;18301;51.076;17.046;2023-08-20T12:32:48;100572.81;;;31.90;50.21
31717;BME280;18301;51.076;17.046;2023-08-20T12:37:49;100576.69;;;31.88;48.81
31717;BME280;18301;51.076;17.046;2023-08-20T12:42:51;100572.19;;;31.99;48.45
31717;BME280;18301;51.076;17.046;2023-08-20T12:47:52;100576.28;;;32.08;49.72
31717;BME280;18301;51.076;17.046;2023-08-20T12:52:55;100568.13;;;32.07;48.16
31717;BME280;18301;51.076;17.046;2023-08-20T12:57:57;100572.72;;;32.13;46.00
31717;BME280;18301;51.076;17.046;2023-08-20T13:03:00;100561.03;;;32.16;46.16
31717;BME280;18301;51.076;17.046;2023-08-20T13:08:01;100564.44;;;32.18;47.00
31717;BME280;18301;51.076;17.046;2023-08-20T13:13:03;100558.25;;;32.16;45.17
31717;BME280;18301;51.076;17.046;2023-08-20T13:18:06;100558.06;;;32.06;45.41
31717;BME280;18301;51.076;17.046;2023-08-20T13:23:09;100564.91;;;31.86;45.04
31717;BME280;18301;51.076;17.046;2023-08-20T13:28:10;100560.25;;;31.75;47.11
31717;BME280;18301;51.076;17.046;2023-08-20T13:33:15;100555.38;;;31.82;48.34
31717;BME280;18301;51.076;17.046;2023-08-20T13:38:16;100554.56;;;31.99;47.83
31717;BME280;18301;51.076;17.046;2023-08-20T13:43:18;100555.97;;;32.13;48.12
31717;BME280;18301;51.076;17.046;2023-08-20T13:48:20;100552.25;;;32.24;48.04
31717;BME280;18301;51.076;17.046;2023-08-20T13:53:21;100547.34;;;32.15;48.44
31717;BME280;18301;51.076;17.046;2023-08-20T13:58:23;100547.59;;;32.13;47.13
31717;BME280;18301;51.076;17.046;2023-08-20T14:03:25;100540.66;;;32.16;49.71
31717;BME280;18301;51.076;17.046;2023-08-20T14:08:27;100531.25;;;32.05;48.24
31717;BME280;18301;51.076;17.046;2023-08-20T14:13:28;100532.25;;;31.99;49.06
31717;BME280;18301;51.076;17.046;2023-08-20T14:18:30;100535.13;;;32.04;47.55
31717;BME280;18301;51.076;17.046;2023-08-20T14:23:31;100535.81;;;32.11;47.25
31717;BME280;18301;51.076;17.046;2023-08-20T14:28:33;100534.81;;;32.51;43.69
31717;BME280;18301;51.076;17.046;2023-08-20T14:33:35;100536.66;;;32.79;44.97
31717;BME280;18301;51.076;17.046;2023-08-20T14:38:37;100534.63;;;32.74;43.31
31717;BME280;18301;51.076;17.046;2023-08-20T14:43:38;100530.44;;;32.55;43.78
31717;BME280;18301;51.076;17.046;2023-08-20T14:48:40;100528.72;;;32.20;42.74
31717;BME280;18301;51.076;17.046;2023-08-20T14:53:44;100536.03;;;31.93;44.70
31717;BME280;18301;51.076;17.046;2023-08-20T14:58:45;100529.88;;;31.91;43.84
31717;BME280;18301;51.076;17.046;2023-08-20T15:03:48;100533.44;;;31.74;42.89
31717;BME280;18301;51.076;17.046;2023-08-20T15:08:49;100518.97;;;31.77;43.19
31717;BME280;18301;51.076;17.046;2023-08-20T15:13:51;100514.34;;;31.83;44.25
31717;BME280;18301;51.076;17.046;2023-08-20T15:18:53;100509.72;;;31.88;43.94
31717;BME280;18301;51.076;17.046;2023-08-20T15:23:54;100505.97;;;31.83;44.25
31717;BME280;18301;51.076;17.046;2023-08-20T15:28:56;100500.06;;;31.79;43.75
31717;BME280;18301;51.076;17.046;2023-08-20T15:33:57;100502.63;;;31.81;42.50
31717;BME280;18301;51.076;17.046;2023-08-20T15:38:59;100502.31;;;31.94;43.28
31717;BME280;18301;51.076;17.046;2023-08-20T15:44:01;100490.53;;;31.92;42.17
31717;BME280;18301;51.076;17.046;2023-08-20T15:49:02;100491.28;;;31.87;42.65
31717;BME280;18301;51.076;17.046;2023-08-20T15:54:04;100493.81;;;31.72;43.39
31717;BME280;18301;51.076;17.046;2023-08-20T15:59:05;100482.88;;;31.71;43.83
31717;BME280;18301;51.076;17.046;2023-08-20T16:04:07;100485.00;;;31.63;44.07
31717;BME280;18301;51.076;17.046;2023-08-20T16:09:09;100486.00;;;31.57;45.34
31717;BME280;18301;51.076;17.046;2023-08-20T16:14:11;100486.38;;;31.49;46.13
31717;BME280;18301;51.076;17.046;2023-08-20T16:19:12;100488.63;;;31.35;46.57
31717;BME280;18301;51.076;17.046;2023-08-20T16:24:18;100489.59;;;31.29;46.99
31717;BME280;18301;51.076;17.046;2023-08-20T16:29:20;100488.91;;;31.22;47.52
31717;BME280;18301;51.076;17.046;2023-08-20T16:34:23;100499.75;;;31.07;48.02
31717;BME280;18301;51.076;17.046;2023-08-20T16:39:25;100497.19;;;30.93;48.47
31717;BME280;18301;51.076;17.046;2023-08-20T16:44:26;100498.44;;;30.86;49.12
31717;BME280;18301;51.076;17.046;2023-08-20T16:49:30;100490.69;;;30.76;49.60
31717;BME280;18301;51.076;17.046;2023-08-20T16:54:32;100495.50;;;30.69;49.53
31717;BME280;18301;51.076;17.046;2023-08-20T16:59:33;100497.31;;;30.63;50.38
31717;BME280;18301;51.076;17.046;2023-08-20T17:04:35;100503.88;;;30.57;49.91
31717;BME280;18301;51.076;17.046;2023-08-20T17:09:36;100499.41;;;30.44;50.91
31717;BME280;18301;51.076;17.046;2023-08-20T17:14:38;100503.50;;;30.42;51.44
31717;BME280;18301;51.076;17.046;2023-08-20T17:19:40;100507.38;;;30.29;51.77
31717;BME280;18301;51.076;17.046;2023-08-20T17:24:42;100508.81;;;30.20;52.50
31717;BME280;18301;51.076;17.046;2023-08-20T17:29:46;100509.66;;;30.09;52.93
31717;BME280;18301;51.076;17.046;2023-08-20T17:34:48;100516.66;;;29.99;54.06
31717;BME280;18301;51.076;17.046;2023-08-20T17:39:50;100515.28;;;29.90;53.75
31717;BME280;18301;51.076;17.046;2023-08-20T17:44:51;100518.88;;;29.79;54.75
31717;BME280;18301;51.076;17.046;2023-08-20T17:49:53;100514.72;;;29.70;55.00
31717;BME280;18301;51.076;17.046;2023-08-20T17:54:54;100514.44;;;29.59;55.72
31717;BME280;18301;51.076;17.046;2023-08-20T17:59:56;100510.13;;;29.45;56.76
31717;BME280;18301;51.076;17.046;2023-08-20T18:04:58;100513.09;;;29.32;57.72
31717;BME280;18301;51.076;17.046;2023-08-20T18:10:01;100528.72;;;29.14;58.62
31717;BME280;18301;51.076;17.046;2023-08-20T18:15:03;100539.13;;;29.01;59.84
31717;BME280;18301;51.076;17.046;2023-08-20T18:20:05;100541.56;;;28.90;59.63
31717;BME280;18301;51.076;17.046;2023-08-20T18:25:08;100542.72;;;28.83;60.51
31717;BME280;18301;51.076;17.046;2023-08-20T18:30:10;100549.03;;;28.72;61.29
31717;BME280;18301;51.076;17.046;2023-08-20T18:35:12;100555.94;;;28.62;62.35
31717;BME280;18301;51.076;17.046;2023-08-20T18:40:14;100569.06;;;28.55;62.98
31717;BME280;18301;51.076;17.046;2023-08-20T18:45:16;100574.50;;;28.43;63.59
31717;BME280;18301;51.076;17.046;2023-08-20T18:50:17;100576.78;;;28.21;64.60
31717;BME280;18301;51.076;17.046;2023-08-20T18:55:18;100577.88;;;28.14;64.39
31717;BME280;18301;51.076;17.046;2023-08-20T19:00:20;100580.72;;;28.07;65.40
31717;BME280;18301;51.076;17.046;2023-08-20T19:05:23;100577.59;;;27.97;65.63
31717;BME280;18301;51.076;17.046;2023-08-20T19:10:24;100581.03;;;27.92;66.46
31717;BME280;18301;51.076;17.046;2023-08-20T19:15:26;100581.06;;;27.86;66.89
31717;BME280;18301;51.076;17.046;2023-08-20T19:20:27;100578.56;;;27.77;67.27
31717;BME280;18301;51.076;17.046;2023-08-20T19:25:29;100575.78;;;27.71;68.01
31717;BME280;18301;51.076;17.046;2023-08-20T19:30:31;100580.31;;;27.65;67.54
31717;BME280;18301;51.076;17.046;2023-08-20T19:35:32;100591.84;;;27.62;68.27
31717;BME280;18301;51.076;17.046;2023-08-20T19:40:37;100582.69;;;27.55;68.53
31717;BME280;18301;51.076;17.046;2023-08-20T19:45:39;100591.03;;;27.48;69.12
31717;BME280;18301;51.076;17.046;2023-08-20T19:50:41;100595.97;;;27.40;69.46
31717;BME280;18301;51.076;17.046;2023-08-20T19:55:43;100602.63;;;27.32;69.84
31717;BME280;18301;51.076;17.046;2023-08-20T20:00:44;100605.00;;;27.28;70.80
31717;BME280;18301;51.076;17.046;2023-08-20T20:05:46;100605.88;;;27.22;70.93
31717;BME280;18301;51.076;17.046;2023-08-20T20:10:47;100603.97;;;27.16;71.51
31717;BME280;18301;51.076;17.046;2023-08-20T20:15:49;100603.06;;;27.09;71.66
31717;BME280;18301;51.076;17.046;2023-08-20T20:20:50;100602.25;;;27.02;71.46
31717;BME280;18301;51.076;17.046;2023-08-20T20:25:52;100603.75;;;26.84;71.97
31717;BME280;18301;51.076;17.046;2023-08-20T20:30:53;100604.00;;;26.83;71.90
31717;BME280;18301;51.076;17.046;2023-08-20T20:35:55;100610.38;;;26.83;72.10
31717;BME280;18301;51.076;17.046;2023-08-20T20:40:56;100610.81;;;26.80;72.84
31717;BME280;18301;51.076;17.046;2023-08-20T20:45:58;100614.00;;;26.77;72.72
31717;BME280;18301;51.076;17.046;2023-08-20T20:51:00;100613.78;;;26.72;73.46
31717;BME280;18301;51.076;17.046;2023-08-20T20:56:01;100612.53;;;26.68;73.75
31717;BME280;18301;51.076;17.046;2023-08-20T21:01:03;100621.03;;;26.60;73.85
31717;BME280;18301;51.076;17.046;2023-08-20T21:06:06;100623.19;;;26.58;74.37
31717;BME280;18301;51.076;17.046;2023-08-20T21:11:07;100631.50;;;26.51;74.69
31717;BME280;18301;51.076;17.046;2023-08-20T21:16:09;100624.03;;;26.52;75.19
31717;BME280;18301;51.076;17.046;2023-08-20T21:21:10;100619.75;;;26.56;75.70
31717;BME280;18301;51.076;17.046;2023-08-20T21:26:14;100621.47;;;26.50;75.13
31717;BME280;18301;51.076;17.046;2023-08-20T21:31:15;100616.31;;;26.40;75.88
31717;BME280;18301;51.076;17.046;2023-08-20T21:36:17;100618.00;;;26.41;75.96
31717;BME280;18301;51.076;17.046;2023-08-20T21:41:19;100625.69;;;26.39;76.83
31717;BME280;18301;51.076;17.046;2023-08-20T21:46:20;100631.22;;;26.39;76.67
31717;BME280;18301;51.076;17.046;2023-08-20T21:51:22;100612.47;;;26.35;77.17
31717;BME280;18301;51.076;17.046;2023-08-20T21:56:24;100617.16;;;26.34;76.65
31717;BME280;18301;51.076;17.046;2023-08-20T22:01:28;100613.75;;;26.32;77.00
31717;BME280;18301;51.076;17.046;2023-08-20T22:06:30;100616.31;;;26.34;77.12
31717;BME280;18301;51.076;17.046;2023-08-20T22:11:31;100624.81;;;26.32;77.34
31717;BME280;18301;51.076;17.046;2023-08-20T22:16:33;100623.13;;;26.31;77.60
31717;BME280;18301;51.076;17.046;2023-08-20T22:21:34;100616.31;;;26.27;77.75
31717;BME280;18301;51.076;17.046;2023-08-20T22:26:36;100615.66;;;26.12;78.81
31717;BME280;18301;51.076;17.046;2023-08-20T22:31:37;100610.72;;;25.87;80.98
31717;BME280;18301;51.076;17.046;2023-08-20T22:36:39;100615.75;;;25.77;79.54
31717;BME280;18301;51.076;17.046;2023-08-20T22:41:40;100612.38;;;25.82;80.29
31717;BME280;18301;51.076;17.046;2023-08-20T22:46:42;100610.28;;;25.84;80.24
31717;BME280;18301;51.076;17.046;2023-08-20T22:51:44;100607.72;;;25.82;81.03
31717;BME280;18301;51.076;17.046;2023-08-20T22:56:46;100614.03;;;25.76;80.65
31717;BME280;18301;51.076;17.046;2023-08-20T23:01:47;100608.91;;;25.73;80.92
31717;BME280;18301;51.076;17.046;2023-08-20T23:06:51;100613.16;;;25.69;81.28
31717;BME280;18301;51.076;17.046;2023-08-20T23:11:53;100613.59;;;25.66;81.59
31717;BME280;18301;51.076;17.046;2023-08-20T23:16:54;100613.53;;;25.53;81.52
31717;BME280;18301;51.076;17.046;2023-08-20T23:21:56;100613.06;;;25.42;82.73
31717;BME280;18301;51.076;17.046;2023-08-20T23:26:58;100624.03;;;25.29;83.31
31717;BME280;18301;51.076;17.046;2023-08-20T23:31:59;100614.69;;;25.30;83.79
31717;BME280;18301;51.076;17.046;2023-08-20T23:37:00;100617.69;;;25.29;84.11
31717;BME280;18301;51.076;17.046;2023-08-20T23:42:03;100612.97;;;25.22;84.11
31717;BME280;18301;51.076;17.046;2023-08-20T23:47:04;100615.88;;;25.14;84.88
31717;BME280;18301;51.076;17.046;2023-08-20T23:52:06;100611.75;;;25.03;85.41
31717;BME280;18301;51.076;17.046;2023-08-20T23:57:07;100613.66;;;25.03;86.04
